Time;durP1;ratioP1;P1;durP2;ratioP2;P2;SDS_P1;SDS_P2;PMS_P1;PMS_P2;Temp;Humidity;BMP_temperature;BMP_pressure;BME280_temperature;BME280_humidity;BME280_pressure;Samples;Min_cycle;Max_cycle;Signal;HPM_P1;HPM_P2
2022/06/18 00:00:57;;;;;;;1.70;1.42;;;;;;;25.60;45.67;100071.19;4966570;28;20027;-86
2022/06/18 00:03:22;;;;;;;1.73;1.48;;;;;;;25.61;46.30;100061.09;4951778;28;20078;-88
2022/06/18 00:05:50;;;;;;;1.85;1.30;;;;;;;25.61;46.59;100066.56;4955527;28;20042;-86
2022/06/18 00:08:20;;;;;;;1.92;1.30;;;;;;;25.63;45.65;100065.25;4967590;28;20027;-86
2022/06/18 00:10:46;;;;;;;1.05;0.95;;;;;;;25.54;46.21;100068.53;4946980;28;20035;-85
2022/06/18 00:13:41;;;;;;;1.50;1.20;;;;;;;25.57;46.17;100068.94;4950684;28;20072;-87
2022/06/18 00:16:16;;;;;;;2.45;1.10;;;;;;;25.58;46.20;100062.38;4980554;28;20053;-86
2022/06/18 00:18:41;;;;;;;1.55;1.10;;;;;;;25.54;46.20;100066.66;4950956;28;20023;-86
2022/06/18 00:21:08;;;;;;;1.80;1.20;;;;;;;25.57;45.78;100065.34;4952101;28;20038;-86
2022/06/18 00:23:33;;;;;;;2.67;1.27;;;;;;;25.51;46.29;100060.78;4953976;28;20098;-86
2022/06/18 00:25:59;;;;;;;1.60;1.30;;;;;;;25.49;46.09;100058.28;4951821;28;20117;-87
2022/06/18 00:28:27;;;;;;;1.40;1.17;;;;;;;25.53;45.83;100059.47;4971021;28;20041;-86
2022/06/18 00:30:53;;;;;;;;;;;;;;;25.59;45.44;100060.47;4969578;28;20029;-86
2022/06/18 00:33:19;;;;;;;1.75;1.00;;;;;;;25.60;45.34;100065.72;4949903;28;19914;-87
2022/06/18 00:35:45;;;;;;;1.30;1.20;;;;;;;25.61;45.54;100053.69;4951465;28;20038;-87
2022/06/18 00:38:24;;;;;;;1.63;1.10;;;;;;;25.64;45.53;100052.41;4952249;28;20022;-86
2022/06/18 00:40:50;;;;;;;1.27;1.13;;;;;;;25.61;45.51;100055.59;4967827;28;20519;-85
2022/06/18 00:43:20;;;;;;;2.80;1.15;;;;;;;25.57;45.15;100052.50;4963338;28;20041;-87
2022/06/18 00:45:46;;;;;;;2.08;1.35;;;;;;;25.54;45.26;100049.34;4985773;28;20022;-87
2022/06/18 00:48:22;;;;;;;2.33;1.20;;;;;;;25.56;44.87;100053.56;4969766;28;20034;-84
2022/06/18 00:50:57;;;;;;;1.30;1.20;;;;;;;25.50;45.75;100046.25;4966285;28;20026;-86
2022/06/18 00:53:30;;;;;;;2.53;1.23;;;;;;;25.52;45.70;100041.38;4963626;28;20070;-86
2022/06/18 00:56:01;;;;;;;1.58;1.10;;;;;;;25.38;45.72;100046.22;4951870;28;20026;-86
2022/06/18 00:58:31;;;;;;;1.35;1.10;;;;;;;25.37;46.26;100046.44;4979781;28;20093;-86
2022/06/18 01:01:04;;;;;;;2.95;1.17;;;;;;;25.39;45.83;100045.16;4966638;28;20473;-87
2022/06/18 01:03:34;;;;;;;1.42;1.33;;;;;;;25.30;46.07;100052.03;4950457;28;20378;-85
2022/06/18 01:06:03;;;;;;;2.42;1.25;;;;;;;25.36;45.84;100055.72;4943279;28;20073;-86
2022/06/18 01:08:32;;;;;;;2.35;1.30;;;;;;;25.33;45.81;100048.81;4940177;28;20027;-87
2022/06/18 01:11:00;;;;;;;3.08;1.30;;;;;;;25.33;46.50;100054.28;4967373;28;20045;-86
2022/06/18 01:13:31;;;;;;;1.25;1.00;;;;;;;25.41;46.72;100048.50;4984147;28;20037;-87
2022/06/18 01:15:57;;;;;;;1.15;1.02;;;;;;;25.40;45.82;100048.72;4975643;28;20042;-87
2022/06/18 01:18:22;;;;;;;2.95;1.10;;;;;;;25.41;45.30;100044.91;4947325;28;20049;-87
2022/06/18 01:20:54;;;;;;;3.55;1.20;;;;;;;25.43;44.98;100037.28;4950549;28;20489;-86
2022/06/18 01:23:32;;;;;;;1.30;1.15;;;;;;;25.45;45.56;100042.53;4949917;28;20033;-86
2022/06/18 01:25:58;;;;;;;1.30;1.20;;;;;;;25.49;45.35;100041.00;4966316;28;20132;-86
2022/06/18 01:28:23;;;;;;;1.48;1.20;;;;;;;25.47;45.90;100040.41;4967681;28;20477;-86
2022/06/18 01:30:48;;;;;;;2.70;1.30;;;;;;;25.45;45.80;100037.91;4961983;28;20022;-86
2022/06/18 01:33:14;;;;;;;4.07;1.30;;;;;;;25.45;45.68;100032.41;4954494;28;20042;-86
2022/06/18 01:35:42;;;;;;;1.55;1.17;;;;;;;25.45;45.72;100037.06;4965086;28;20022;-86
2022/06/18 01:38:09;;;;;;;1.27;1.15;;;;;;;25.42;45.73;100036.47;4951588;28;20054;-87
2022/06/18 01:40:40;;;;;;;3.08;1.35;;;;;;;25.42;45.95;100032.88;4967000;28;20037;-85
2022/06/18 01:43:07;;;;;;;1.30;1.20;;;;;;;25.41;45.40;100037.53;4958754;28;20069;-86
2022/06/18 01:45:35;;;;;;;2.50;1.30;;;;;;;25.40;45.32;100035.84;4983384;28;20465;-87
2022/06/18 01:48:05;;;;;;;4.40;1.75;;;;;;;25.38;45.57;100029.78;4949814;28;20031;-86
2022/06/18 01:50:33;;;;;;;1.90;1.20;;;;;;;25.42;45.67;100021.94;4949200;28;20041;-86
2022/06/18 01:53:08;;;;;;;2.20;1.17;;;;;;;25.39;45.31;100022.41;4984292;28;20022;-87
2022/06/18 01:55:38;;;;;;;1.40;1.30;;;;;;;25.39;46.05;100019.66;4950722;28;20049;-87
2022/06/18 01:58:07;;;;;;;4.55;1.40;;;;;;;25.38;45.77;100016.09;4977648;28;20026;-86
2022/06/18 02:00:32;;;;;;;1.67;1.40;;;;;;;25.40;46.30;100021.34;4950060;28;20035;-87
2022/06/18 02:02:59;;;;;;;1.35;1.10;;;;;;;25.37;45.93;100019.91;4974943;28;20031;-87
2022/06/18 02:05:25;;;;;;;2.78;1.30;;;;;;;25.41;46.42;100010.16;4947370;28;20094;-87
2022/06/18 02:07:51;;;;;;;1.92;1.40;;;;;;;25.40;46.55;100011.22;4969133;28;20540;-87
2022/06/18 02:10:29;;;;;;;1.50;1.40;;;;;;;25.40;46.42;100005.75;4948478;28;20124;-86
2022/06/18 02:12:57;;;;;;;2.67;1.20;;;;;;;25.38;46.79;100009.78;4950461;28;20027;-87
2022/06/18 02:15:26;;;;;;;1.30;1.20;;;;;;;25.35;46.36;100011.06;4971498;28;20042;-87
2022/06/18 02:17:52;;;;;;;1.85;1.50;;;;;;;25.35;46.95;100011.06;4955550;28;20085;-86
2022/06/18 02:20:24;;;;;;;1.20;1.10;;;;;;;25.33;46.95;100004.16;4972117;28;20046;-85
2022/06/18 02:22:52;;;;;;;3.28;1.27;;;;;;;25.30;46.58;100000.00;4953842;28;20031;-87
2022/06/18 02:25:19;;;;;;;;;;;;;;;25.30;46.68;100004.63;4951900;28;20026;-85
2022/06/18 02:27:44;;;;;;;1.58;1.20;;;;;;;25.30;46.41;100004.63;4952863;28;19918;-87
2022/06/18 02:30:17;;;;;;;1.83;1.20;;;;;;;25.31;46.70;100003.56;4952034;28;20101;-86
2022/06/18 02:32:56;;;;;;;2.15;1.20;;;;;;;25.27;46.62;100003.19;4955461;28;20034;-86
2022/06/18 02:35:21;;;;;;;1.60;1.30;;;;;;;25.25;46.75;99997.13;4959951;28;20113;-88
2022/06/18 02:37:47;;;;;;;1.30;1.20;;;;;;;25.24;46.62;99997.34;4956508;28;20057;-85
2022/06/18 02:40:20;;;;;;;1.92;1.20;;;;;;;25.25;47.25;99997.13;4952255;28;20027;-87
2022/06/18 02:42:46;;;;;;;1.42;1.20;;;;;;;25.25;46.88;100004.50;4968281;28;20080;-87
2022/06/18 02:45:11;;;;;;;1.38;1.27;;;;;;;25.21;47.00;99998.66;4964307;28;20106;-87
2022/06/18 02:47:37;;;;;;;2.63;1.33;;;;;;;25.19;46.75;99995.31;4952629;28;20476;-86
2022/06/18 02:50:08;;;;;;;1.60;1.40;;;;;;;25.20;46.38;99996.97;4968977;28;20045;-86
2022/06/18 02:52:41;;;;;;;1.38;1.20;;;;;;;25.19;47.03;99999.97;4971229;28;20078;-87
2022/06/18 02:55:27;;;;;;;4.18;1.38;;;;;;;25.16;46.76;99992.22;4950520;28;20027;-86
2022/06/18 02:57:58;;;;;;;3.25;1.30;;;;;;;25.16;46.67;99993.03;4985384;28;20027;-86
2022/06/18 03:00:24;;;;;;;1.95;1.42;;;;;;;25.15;46.27;100002.31;4967908;28;20477;-86
2022/06/18 03:02:49;;;;;;;1.60;1.40;;;;;;;25.10;46.70;100002.19;4965539;28;20041;-87
2022/06/18 03:05:24;;;;;;;2.55;1.30;;;;;;;25.12;46.75;100002.78;4953090;28;20405;-86
2022/06/18 03:07:50;;;;;;;1.48;1.30;;;;;;;25.14;46.55;100003.38;4954451;28;20489;-87
2022/06/18 03:13:00;;;;;;;2.63;1.40;;;;;;;25.12;47.78;100002.78;4971582;28;20037;-86
2022/06/18 03:15:26;;;;;;;1.90;1.60;;;;;;;25.10;47.61;100005.75;4969264;28;20453;-87
2022/06/18 03:17:52;;;;;;;3.03;1.40;;;;;;;25.12;47.06;100002.78;4978001;28;20022;-87
2022/06/18 03:20:19;;;;;;;1.45;1.30;;;;;;;25.12;47.64;100010.16;4953961;28;20049;-87
2022/06/18 03:22:44;;;;;;;2.35;1.40;;;;;;;25.08;47.05;100002.41;4960580;28;20062;-87
2022/06/18 03:25:10;;;;;;;1.52;1.33;;;;;;;25.07;47.71;100003.47;4948826;28;20417;-86
2022/06/18 03:27:35;;;;;;;2.03;1.30;;;;;;;25.08;47.76;100004.31;4972457;28;20035;-85
2022/06/18 03:30:03;;;;;;;1.48;1.33;;;;;;;25.06;47.48;100000.94;4951752;28;20542;-87
2022/06/18 03:32:28;;;;;;;1.35;1.25;;;;;;;25.03;47.90;100004.16;4948723;28;20030;-87
2022/06/18 03:34:54;;;;;;;2.13;1.30;;;;;;;25.03;47.15;100001.41;4952101;28;20039;-87
2022/06/18 03:37:19;;;;;;;2.92;1.50;;;;;;;25.01;47.38;100003.53;4956568;28;20141;-86
2022/06/18 03:39:44;;;;;;;2.83;1.55;;;;;;;24.99;47.54;100001.03;4949661;28;20037;-87
2022/06/18 03:42:13;;;;;;;1.67;1.40;;;;;;;24.96;47.80;100006.94;4950983;28;20034;-87
2022/06/18 03:44:38;;;;;;;1.42;1.33;;;;;;;24.94;47.90;100000.88;4949952;28;20030;-87
2022/06/18 03:47:04;;;;;;;3.30;1.60;;;;;;;24.85;47.70;100005.00;4951343;28;20035;-86
2022/06/18 03:49:32;;;;;;;3.63;1.50;;;;;;;24.83;48.11;100004.38;4951810;28;20031;-85
2022/06/18 03:51:58;;;;;;;1.83;1.35;;;;;;;24.74;48.80;99997.56;4949456;28;20033;-88
2022/06/18 03:54:24;;;;;;;1.67;1.50;;;;;;;24.71;48.82;100008.97;4949792;28;20027;-87
2022/06/18 03:56:50;;;;;;;1.67;1.58;;;;;;;24.68;49.57;100002.03;4953129;28;20030;-86
2022/06/18 03:59:15;;;;;;;1.88;1.50;;;;;;;24.67;49.71;100005.00;4952634;28;20032;-86
2022/06/18 04:01:41;;;;;;;1.88;1.65;;;;;;;24.66;49.64;100003.34;4953092;28;20038;-88
2022/06/18 04:04:11;;;;;;;2.00;1.60;;;;;;;24.63;49.69;100001.91;4951742;28;20102;-86
2022/06/18 04:06:38;;;;;;;2.08;1.45;;;;;;;24.69;49.68;100000.97;4968739;28;20018;-87
2022/06/18 04:09:04;;;;;;;3.58;1.42;;;;;;;24.70;50.04;100001.81;4953502;28;20527;-87
2022/06/18 04:11:29;;;;;;;3.25;1.42;;;;;;;24.71;50.37;99998.84;4947977;28;20482;-86
2022/06/18 04:13:55;;;;;;;1.73;1.50;;;;;;;24.74;49.93;99995.66;4951136;28;20033;-86
2022/06/18 04:16:20;;;;;;;1.58;1.48;;;;;;;24.75;49.63;99991.84;4948260;28;20101;-86
2022/06/18 04:18:45;;;;;;;1.50;1.40;;;;;;;24.78;49.83;99996.88;4953400;28;20101;-87
2022/06/18 04:21:11;;;;;;;1.90;1.70;;;;;;;24.80;49.97;99989.25;4954796;28;20439;-86
2022/06/18 04:23:36;;;;;;;1.95;1.50;;;;;;;24.80;49.24;99994.72;4964382;28;20085;-86
2022/06/18 04:26:01;;;;;;;2.83;1.50;;;;;;;24.83;48.98;99998.06;4954428;28;20050;-86
2022/06/18 04:28:27;;;;;;;1.92;1.70;;;;;;;24.82;49.55;99994.50;4946375;28;20034;-86
2022/06/18 04:30:53;;;;;;;1.98;1.70;;;;;;;24.80;49.62;99992.00;4952807;28;20030;-86
2022/06/18 04:33:18;;;;;;;2.38;1.38;;;;;;;24.81;49.43;99998.31;4969932;28;20014;-85
2022/06/18 04:35:44;;;;;;;1.40;1.30;;;;;;;24.83;49.42;99992.59;4947620;28;20033;-87
2022/06/18 04:38:11;;;;;;;2.00;1.40;;;;;;;24.82;48.82;99997.25;4955261;28;20014;-87
2022/06/18 04:40:37;;;;;;;1.75;1.40;;;;;;;24.82;49.27;99994.50;4957755;28;20027;-88
2022/06/18 04:43:04;;;;;;;2.13;1.25;;;;;;;24.83;48.95;100000.81;4952408;28;20050;-88
2022/06/18 04:45:30;;;;;;;1.93;1.50;;;;;;;24.82;49.56;99993.66;4969096;28;20409;-86
2022/06/18 04:47:56;;;;;;;1.50;1.40;;;;;;;24.79;50.13;99994.97;4950997;28;20026;-85
2022/06/18 04:50:25;;;;;;;1.95;1.77;;;;;;;24.75;51.12;99994.59;4945372;28;20035;-85
2022/06/18 04:52:51;;;;;;;3.25;1.88;;;;;;;24.75;50.55;99989.13;4964361;28;20045;-86
2022/06/18 04:55:16;;;;;;;1.85;1.75;;;;;;;24.75;50.12;99991.84;4946782;28;20042;-87
2022/06/18 04:57:42;;;;;;;1.55;1.45;;;;;;;24.76;50.35;99982.59;4948205;28;20030;-86
2022/06/18 05:00:09;;;;;;;2.47;1.38;;;;;;;24.79;50.04;99984.03;4946832;28;20113;-85
2022/06/18 05:02:35;;;;;;;2.63;1.40;;;;;;;24.79;50.14;99984.03;4955343;28;20023;-86
2022/06/18 05:05:01;;;;;;;3.08;1.60;;;;;;;24.80;49.95;99982.94;4962686;28;20030;-86
2022/06/18 05:07:27;;;;;;;3.05;1.52;;;;;;;24.77;50.55;99978.78;4950375;28;20037;-86
2022/06/18 05:09:52;;;;;;;1.80;1.38;;;;;;;24.78;51.36;99977.72;4947776;28;20026;-86
2022/06/18 05:12:17;;;;;;;3.90;1.60;;;;;;;24.82;50.21;99975.34;4945952;28;20034;-86
2022/06/18 05:14:43;;;;;;;2.17;1.60;;;;;;;24.80;50.34;99972.84;4947575;28;20121;-86
2022/06/18 05:17:16;;;;;;;2.25;1.30;;;;;;;24.78;50.36;99977.72;4948530;28;20074;-87
2022/06/18 05:19:41;;;;;;;3.28;1.77;;;;;;;24.80;50.44;99978.31;4964900;28;20089;-86
2022/06/18 05:22:07;;;;;;;3.28;1.50;;;;;;;24.80;50.94;99974.75;4947827;28;20109;-87
2022/06/18 05:24:32;;;;;;;3.05;1.50;;;;;;;24.82;50.35;99972.63;4948445;28;20073;-87
2022/06/18 05:26:59;;;;;;;2.55;1.48;;;;;;;24.84;50.54;99966.91;4950809;28;20027;-87
2022/06/18 05:29:24;;;;;;;2.35;1.40;;;;;;;24.83;50.44;99966.06;4947020;28;20030;-86
2022/06/18 05:31:50;;;;;;;2.03;1.40;;;;;;;24.84;50.22;99959.53;4949089;28;20022;-87
2022/06/18 05:34:15;;;;;;;2.20;1.33;;;;;;;24.84;50.26;99959.53;4947451;28;20026;-86
2022/06/18 05:36:41;;;;;;;2.30;1.40;;;;;;;24.87;50.67;99960.97;4947375;28;20018;-88
2022/06/18 05:39:07;;;;;;;1.52;1.42;;;;;;;24.90;50.33;99955.03;4949307;28;20022;-87
2022/06/18 05:41:32;;;;;;;1.40;1.30;;;;;;;24.93;50.45;99947.19;4948854;28;20023;-87
2022/06/18 05:43:58;;;;;;;2.00;1.45;;;;;;;24.93;50.44;99957.31;4950081;28;20092;-86
2022/06/18 05:46:23;;;;;;;3.35;1.55;;;;;;;24.93;50.23;99952.66;4949732;28;20026;-87
2022/06/18 05:48:49;;;;;;;2.45;1.50;;;;;;;24.97;50.23;99942.09;4952694;28;20027;-87
2022/06/18 05:51:14;;;;;;;2.60;1.30;;;;;;;24.95;50.08;99949.72;4953316;28;20062;-87
2022/06/18 05:53:40;;;;;;;2.45;1.55;;;;;;;24.97;50.06;99953.03;4967276;28;20064;-87
2022/06/18 05:56:05;;;;;;;3.33;1.60;;;;;;;24.97;50.46;99951.13;4952791;28;20851;-87
2022/06/18 05:58:31;;;;;;;1.70;1.38;;;;;;;25.00;49.94;99936.19;4951475;28;20030;-87
2022/06/18 06:00:56;;;;;;;1.77;1.35;;;;;;;25.01;50.61;99935.13;4949400;28;20030;-86
2022/06/18 06:03:22;;;;;;;1.67;1.30;;;;;;;25.03;50.44;99941.19;4967541;28;20034;-87
2022/06/18 06:05:47;;;;;;;2.28;1.40;;;;;;;25.03;50.96;99941.19;4980082;28;20034;-87
2022/06/18 06:08:14;;;;;;;2.50;1.52;;;;;;;25.04;50.77;99951.06;4966150;28;20042;-86
2022/06/18 06:13:24;;;;;;;2.17;1.20;;;;;;;25.09;50.77;99951.25;4967221;28;20029;-85
2022/06/18 06:15:51;;;;;;;2.08;1.50;;;;;;;25.08;51.14;99953.16;4966334;28;20026;-86
2022/06/18 06:18:19;;;;;;;1.60;1.30;;;;;;;25.10;51.00;99952.91;4984215;28;20031;-86
2022/06/18 06:20:46;;;;;;;;;;;;;;;25.09;51.39;99946.59;4952843;28;20262;-87
2022/06/18 06:23:11;;;;;;;1.42;1.33;;;;;;;25.12;51.54;99950.78;4949317;28;19924;-86
2022/06/18 06:25:38;;;;;;;2.63;1.30;;;;;;;25.10;51.55;99950.19;4948159;28;20113;-86
2022/06/18 06:28:04;;;;;;;1.40;1.30;;;;;;;25.11;51.33;99946.38;4980952;28;20026;-87
2022/06/18 06:30:29;;;;;;;1.60;1.30;;;;;;;25.12;51.90;99953.50;4960418;28;20472;-87
2022/06/18 06:32:55;;;;;;;1.25;1.15;;;;;;;25.12;51.58;99939.00;4965570;28;20547;-87
2022/06/18 06:35:20;;;;;;;1.77;1.30;;;;;;;25.14;52.37;99947.81;4965622;28;20031;-87
2022/06/18 06:37:46;;;;;;;1.65;1.55;;;;;;;25.17;52.18;99945.44;4950386;28;20037;-87
2022/06/18 06:40:13;;;;;;;1.25;1.15;;;;;;;25.19;53.38;99948.78;4948407;28;20122;-86
2022/06/18 06:42:47;;;;;;;2.10;1.30;;;;;;;25.22;53.00;99942.00;4948323;28;20033;-87
2022/06/18 06:45:21;;;;;;;1.67;1.20;;;;;;;25.20;53.01;99942.22;4968227;28;20055;-86
2022/06/18 06:47:47;;;;;;;2.15;1.33;;;;;;;25.23;53.23;99941.75;4953183;28;20026;-85
2022/06/18 06:50:13;;;;;;;2.40;1.48;;;;;;;25.26;53.39;99949.50;4951192;28;20026;-84
2022/06/18 06:52:39;;;;;;;2.08;1.20;;;;;;;25.27;53.80;99937.47;4949009;28;20023;-86
2022/06/18 06:57:53;;;;;;;2.03;1.83;;;;;;;25.29;53.26;99946.31;4981664;28;20058;-86
2022/06/18 07:00:18;;;;;;;3.63;1.73;;;;;;;25.29;53.15;99959.16;4946530;28;20385;-85
2022/06/18 07:02:44;;;;;;;1.50;1.40;;;;;;;25.28;53.14;99941.06;4950335;28;20062;-87
2022/06/18 07:05:12;;;;;;;1.45;1.35;;;;;;;25.29;53.66;99945.47;4948611;28;20038;-86
2022/06/18 07:07:38;;;;;;;1.98;1.42;;;;;;;25.29;54.38;99945.47;4946218;28;20500;-87
2022/06/18 07:10:03;;;;;;;1.48;1.35;;;;;;;25.31;54.23;99957.00;4949892;28;20047;-86
2022/06/18 07:12:29;;;;;;;1.58;1.38;;;;;;;25.34;54.69;99945.59;4949016;28;20030;-86
2022/06/18 07:14:54;;;;;;;1.50;1.40;;;;;;;25.35;54.77;99945.34;4948684;28;20031;-86
2022/06/18 07:17:20;;;;;;;1.42;1.20;;;;;;;25.36;55.35;99948.94;4964033;28;20051;-87
2022/06/18 07:19:45;;;;;;;2.28;1.45;;;;;;;25.36;54.64;99946.19;4963885;28;20551;-87
2022/06/18 07:22:11;;;;;;;2.05;1.60;;;;;;;25.37;54.67;99948.69;4945889;28;20027;-86
2022/06/18 07:24:37;;;;;;;2.83;1.58;;;;;;;25.38;55.43;99944.06;4962993;28;20426;-86
2022/06/18 07:27:03;;;;;;;1.58;1.40;;;;;;;25.40;54.81;99941.91;4948714;28;20553;-86
2022/06/18 07:29:28;;;;;;;3.45;1.40;;;;;;;25.41;55.64;99940.84;4948175;28;20030;-86
2022/06/18 07:31:53;;;;;;;2.65;1.50;;;;;;;25.43;55.19;99939.53;4966160;28;20030;-86
2022/06/18 07:34:19;;;;;;;1.60;1.50;;;;;;;25.46;55.25;99937.41;4948335;28;20137;-86
2022/06/18 07:36:44;;;;;;;2.40;1.50;;;;;;;25.45;54.99;99939.31;4946696;28;20125;-86
2022/06/18 07:39:09;;;;;;;2.20;1.50;;;;;;;25.49;56.21;99939.66;4949133;28;20029;-87
2022/06/18 07:41:42;;;;;;;2.00;1.55;;;;;;;25.50;54.49;99933.94;4950587;28;20027;-86
2022/06/18 07:44:08;;;;;;;2.05;1.65;;;;;;;25.51;54.68;99934.78;4951197;28;20042;-86
2022/06/18 07:46:33;;;;;;;3.28;1.63;;;;;;;25.51;54.77;99930.13;4948799;28;20014;-86
2022/06/18 07:48:59;;;;;;;2.08;1.60;;;;;;;25.50;55.37;99933.13;4945444;28;20055;-88
2022/06/18 07:51:26;;;;;;;1.75;1.58;;;;;;;25.53;55.61;99927.16;4948460;28;20589;-86
2022/06/18 07:53:52;;;;;;;2.55;1.60;;;;;;;25.51;55.43;99919.19;4950344;28;20061;-87
2022/06/18 07:56:17;;;;;;;3.05;1.50;;;;;;;25.53;55.59;99928.00;4954051;28;20461;-87
2022/06/18 07:58:43;;;;;;;2.70;1.83;;;;;;;25.56;54.69;99932.19;4951972;28;20027;-87
2022/06/18 08:01:08;;;;;;;2.38;1.40;;;;;;;25.58;55.48;99932.78;4948154;28;20443;-90
2022/06/18 08:03:35;;;;;;;3.22;1.50;;;;;;;25.57;55.65;99921.00;4966368;28;20041;-93
2022/06/18 08:06:01;;;;;;;1.85;1.33;;;;;;;25.58;55.48;99917.19;4953257;28;20026;-90
2022/06/18 08:08:27;;;;;;;1.55;1.42;;;;;;;25.58;55.16;99919.94;4966811;28;20046;-93
2022/06/18 08:10:52;;;;;;;2.83;1.60;;;;;;;25.58;55.63;99917.19;4950297;28;20034;-93
2022/06/18 08:13:18;;;;;;;1.85;1.70;;;;;;;25.60;56.23;99912.31;4949918;28;20037;-93
2022/06/18 08:15:44;;;;;;;1.73;1.45;;;;;;;25.60;56.29;99917.78;4947780;28;20034;-93
2022/06/18 08:18:09;;;;;;;2.17;1.60;;;;;;;25.60;55.78;99912.31;4949802;28;20063;-92
2022/06/18 08:20:35;;;;;;;1.98;1.42;;;;;;;25.63;55.67;99913.75;4966658;28;20057;-92
2022/06/18 08:23:01;;;;;;;2.42;1.80;;;;;;;25.63;55.34;99914.56;4948901;28;20487;-93
2022/06/18 08:25:29;;;;;;;2.70;1.70;;;;;;;25.66;53.79;99916.03;4964798;28;20034;-92
2022/06/18 08:27:56;;;;;;;2.10;1.40;;;;;;;25.66;55.65;99916.03;4945071;28;20031;-93
2022/06/18 08:30:21;;;;;;;1.40;1.30;;;;;;;25.66;55.59;99908.66;4982128;28;20061;-88
2022/06/18 08:32:47;;;;;;;2.75;1.38;;;;;;;25.69;56.03;99902.69;4964737;28;20488;-95
2022/06/18 08:35:12;;;;;;;2.08;1.70;;;;;;;25.71;55.76;99905.19;4952517;28;20058;-92
2022/06/18 08:37:38;;;;;;;2.33;1.50;;;;;;;25.71;56.22;99902.47;4948360;28;20026;-92
2022/06/18 08:40:37;;;;;;;3.13;1.85;;;;;;;25.72;55.65;99910.44;4948126;28;20058;-91
2022/06/18 08:43:18;;;;;;;3.03;1.50;;;;;;;25.73;55.78;99900.31;4965327;28;20046;-94
2022/06/18 08:46:00;;;;;;;1.85;1.70;;;;;;;25.74;56.29;99904.72;4954349;28;20086;-94
2022/06/18 08:48:51;;;;;;;2.90;1.63;;;;;;;25.76;56.47;99907.22;4979932;28;20050;-93
2022/06/18 08:51:44;;;;;;;2.67;1.83;;;;;;;25.77;56.23;99906.97;4961950;28;20065;-95
2022/06/18 08:54:27;;;;;;;2.15;1.95;;;;;;;25.77;55.80;99901.50;4949961;28;20374;-89
2022/06/18 08:57:06;;;;;;;5.85;2.42;;;;;;;25.78;55.56;99896.84;4982834;28;20086;-90
2022/06/18 09:00:02;;;;;;;3.72;2.22;;;;;;;25.79;56.00;99899.34;4970324;28;20047;-92
2022/06/18 09:02:38;;;;;;;2.00;1.80;;;;;;;25.82;56.17;99892.56;4917295;28;20050;-89
2022/06/18 09:05:20;;;;;;;3.28;2.30;;;;;;;25.84;55.81;99898.63;4948920;28;20087;-93
2022/06/18 09:08:26;;;;;;;2.05;1.85;;;;;;;25.85;56.15;99889.34;4966183;28;20030;-92
2022/06/18 09:10:57;;;;;;;3.00;1.80;;;;;;;25.86;56.75;99889.09;4948898;28;20034;-95
2022/06/18 09:13:28;;;;;;;2.47;1.90;;;;;;;25.88;56.69;99886.94;4962453;28;20373;-90
2022/06/18 09:15:57;;;;;;;3.72;2.03;;;;;;;25.88;56.39;99880.63;4946680;28;20088;-92
2022/06/18 09:18:26;;;;;;;2.78;2.03;;;;;;;25.89;56.03;99885.03;4980785;28;20081;-94
2022/06/18 09:20:54;;;;;;;4.72;2.22;;;;;;;25.91;56.10;99878.25;4947060;28;20054;-90
2022/06/18 09:23:25;;;;;;;2.67;2.40;;;;;;;25.91;56.59;99881.00;4949985;28;20073;-93
2022/06/18 09:25:53;;;;;;;2.45;2.10;;;;;;;25.93;56.21;99881.59;4946593;28;20023;-94
2022/06/18 09:28:28;;;;;;;2.20;1.95;;;;;;;25.95;56.38;99881.34;4963992;28;20026;-87
2022/06/18 09:31:12;;;;;;;2.42;2.03;;;;;;;25.95;56.16;99879.44;4962432;28;20027;-95
2022/06/18 09:33:44;;;;;;;2.53;2.20;;;;;;;25.98;56.66;99876.22;4981103;28;20121;-88
2022/06/18 09:36:17;;;;;;;2.42;2.20;;;;;;;26.00;56.07;99876.81;4946837;28;20039;-90
2022/06/18 09:38:49;;;;;;;3.05;2.08;;;;;;;25.99;56.15;99872.41;4981449;28;20033;-93
2022/06/18 09:41:22;;;;;;;4.90;2.10;;;;;;;26.01;56.16;99878.50;4966447;28;20466;-90
2022/06/18 09:43:57;;;;;;;3.90;2.00;;;;;;;26.04;56.53;99872.53;4983344;28;20914;-92
2022/06/18 09:46:28;;;;;;;2.50;1.90;;;;;;;26.06;56.10;99868.72;4943690;28;20113;-94
2022/06/18 09:48:54;;;;;;;2.22;2.08;;;;;;;26.07;56.82;99868.47;4964234;28;20489;-94
2022/06/18 09:51:38;;;;;;;2.10;1.90;;;;;;;26.08;55.91;99866.56;4945594;28;20034;-94
2022/06/18 09:54:05;;;;;;;3.38;2.10;;;;;;;26.09;56.17;99870.97;4967658;28;20085;-95
2022/06/18 09:56:43;;;;;;;2.15;1.95;;;;;;;26.11;55.82;99872.41;4949399;28;20018;-94
2022/06/18 09:59:28;;;;;;;3.25;2.10;;;;;;;26.13;55.30;99863.94;4965119;28;20066;-89
2022/06/18 10:01:55;;;;;;;2.88;2.10;;;;;;;26.14;56.02;99868.34;4948297;28;20073;-92
2022/06/18 10:07:24;;;;;;;3.80;1.90;;;;;;;26.15;55.55;99859.88;4967604;28;20085;-91
2022/06/18 10:09:56;;;;;;;2.40;2.00;;;;;;;26.17;55.69;99846.75;4946848;28;20033;-90
2022/06/18 10:12:26;;;;;;;2.63;1.85;;;;;;;26.20;55.86;99848.19;4948649;28;20107;-91
2022/06/18 10:14:56;;;;;;;2.83;1.98;;;;;;;26.21;56.16;99852.59;4962002;28;20980;-86
2022/06/18 10:17:45;;;;;;;2.75;1.90;;;;;;;26.22;55.19;99846.84;4946443;28;20031;-86
2022/06/18 10:20:35;;;;;;;3.95;2.00;;;;;;;26.24;55.50;99854.84;4977234;28;20057;-91
2022/06/18 10:23:03;;;;;;;3.13;1.90;;;;;;;26.25;55.30;99849.13;4961123;28;20043;-90
2022/06/18 10:25:36;;;;;;;;;;;;;;;26.28;54.23;99845.06;4950493;28;20027;-88
2022/06/18 10:28:08;;;;;;;2.72;2.10;;;;;;;26.29;55.01;99844.81;4962886;28;19933;-87
2022/06/18 10:30:43;;;;;;;3.58;1.80;;;;;;;26.31;55.33;99847.31;4979640;28;20030;-92
2022/06/18 10:33:13;;;;;;;4.05;2.20;;;;;;;26.33;54.52;99840.53;4961438;28;20172;-91
2022/06/18 10:35:47;;;;;;;4.20;2.15;;;;;;;26.36;54.89;99836.47;4952833;28;20034;-90
2022/06/18 10:38:50;;;;;;;2.70;2.00;;;;;;;26.38;54.68;99842.53;4952303;28;20058;-90
2022/06/18 10:41:37;;;;;;;1.98;1.85;;;;;;;26.41;55.36;99838.47;4981275;28;20508;-91
2022/06/18 10:44:41;;;;;;;3.00;2.00;;;;;;;26.42;55.56;99842.88;4953050;28;20050;-93
2022/06/18 10:47:09;;;;;;;2.65;1.90;;;;;;;26.41;55.31;99842.06;4905097;28;20052;-88
2022/06/18 10:49:35;;;;;;;3.15;2.00;;;;;;;26.43;55.77;99834.41;4984164;28;20030;-89
2022/06/18 10:52:00;;;;;;;6.25;2.00;;;;;;;26.43;55.31;99831.66;4952047;28;20041;-91
2022/06/18 10:54:32;;;;;;;2.00;1.83;;;;;;;26.45;55.91;99842.41;4953263;28;20026;-88
2022/06/18 10:56:57;;;;;;;4.70;2.25;;;;;;;26.45;55.67;99829.50;4951849;28;20030;-91
2022/06/18 10:59:37;;;;;;;3.60;2.10;;;;;;;26.48;54.94;99829.03;4952563;28;20030;-92
2022/06/18 11:02:11;;;;;;;2.58;1.92;;;;;;;26.50;55.17;99826.06;4984303;28;20076;-92
2022/06/18 11:04:37;;;;;;;3.10;1.83;;;;;;;26.51;55.63;99827.72;4981311;28;20101;-89
2022/06/18 11:07:06;;;;;;;4.40;1.90;;;;;;;26.53;55.08;99833.81;4950436;28;20038;-90
2022/06/18 11:09:44;;;;;;;3.47;1.90;;;;;;;26.53;55.54;99818.16;4952685;28;20070;-90
2022/06/18 11:12:27;;;;;;;2.87;1.90;;;;;;;26.55;55.15;99824.25;4982504;28;20046;-89
2022/06/18 11:14:53;;;;;;;1.95;1.70;;;;;;;26.56;55.69;99812.19;4952428;28;20377;-90
2022/06/18 11:17:21;;;;;;;2.25;2.05;;;;;;;26.60;54.42;99812.53;4949480;28;20110;-90
2022/06/18 11:19:48;;;;;;;2.58;2.05;;;;;;;26.61;55.27;99804.06;4950963;28;20183;-91
2022/06/18 11:22:29;;;;;;;1.98;1.80;;;;;;;26.62;55.04;99796.66;4948400;28;20046;-89
2022/06/18 11:24:59;;;;;;;3.42;2.08;;;;;;;26.61;55.38;99804.06;4954572;28;20086;-92
2022/06/18 11:27:30;;;;;;;4.07;2.40;;;;;;;26.62;54.69;99793.91;4971477;28;20453;-90
2022/06/18 11:29:56;;;;;;;2.40;2.20;;;;;;;26.64;55.13;99789.00;4957870;28;20494;-91
2022/06/18 11:32:24;;;;;;;3.28;2.05;;;;;;;26.66;54.68;99798.66;4950405;28;20033;-91
2022/06/18 11:35:13;;;;;;;3.05;2.00;;;;;;;26.66;55.44;99784.09;4949724;28;20051;-90
2022/06/18 11:37:39;;;;;;;3.20;2.17;;;;;;;26.68;54.13;99790.19;4971381;28;20034;-89
2022/06/18 11:40:08;;;;;;;3.28;2.10;;;;;;;26.71;54.65;99786.94;4949523;28;20450;-86
2022/06/18 11:42:41;;;;;;;2.00;1.90;;;;;;;26.72;55.04;99777.63;4980491;28;20034;-86
2022/06/18 11:45:24;;;;;;;5.28;2.20;;;;;;;26.76;54.19;99775.22;4966027;28;20027;-87
2022/06/18 11:48:01;;;;;;;2.20;2.00;;;;;;;26.79;54.13;99763.75;4978701;28;20027;-87
2022/06/18 11:50:46;;;;;;;3.50;2.05;;;;;;;26.82;52.47;99766.81;4964808;28;20125;-89
2022/06/18 11:53:17;;;;;;;3.13;2.25;;;;;;;26.84;53.82;99761.91;4984044;28;20062;-91